createdAt,value
2019-06-07T00:01:23.280Z,19.27
2019-06-07T00:03:53.442Z,18.27
2019-06-07T00:06:25.397Z,17.50
2019-06-07T00:08:55.087Z,17.35
2019-06-07T00:11:25.091Z,17.77
2019-06-07T00:13:56.865Z,17.60
2019-06-07T00:16:26.813Z,18.73
2019-06-07T00:18:57.818Z,18.27
2019-06-07T00:22:12.650Z,18.23
2019-06-07T00:23:59.582Z,18.82
2019-06-07T00:26:29.451Z,19.67
2019-06-07T00:28:59.414Z,19.32
2019-06-07T00:31:29.366Z,17.60
2019-06-07T00:33:59.411Z,18.03
2019-06-07T00:36:29.486Z,17.42
2019-06-07T00:38:59.707Z,18.37
2019-06-07T00:41:31.205Z,18.17
2019-06-07T00:44:01.252Z,18.17
2019-06-07T00:46:31.497Z,17.73
2019-06-07T00:49:01.624Z,17.90
2019-06-07T00:51:49.482Z,18.00
2019-06-07T00:54:04.141Z,18.32
2019-06-07T00:56:34.145Z,18.27
2019-06-07T00:59:11.121Z,18.87
2019-06-07T01:01:35.862Z,19.12
2019-06-07T01:04:05.904Z,19.30
2019-06-07T01:06:35.901Z,18.87
2019-06-07T01:09:07.848Z,20.23
2019-06-07T01:11:37.902Z,18.95
2019-06-07T01:14:08.136Z,19.43
2019-06-07T01:16:56.357Z,18.12
2019-06-07T01:19:09.804Z,18.30
2019-06-07T01:21:39.708Z,19.10
2019-06-07T01:24:12.458Z,18.52
2019-06-07T01:26:41.666Z,19.70
2019-06-07T01:29:11.682Z,19.97
2019-06-07T01:31:41.867Z,20.43
2019-06-07T01:34:11.917Z,19.42
2019-06-07T01:36:41.815Z,20.77
2019-06-07T01:39:11.870Z,20.13
2019-06-07T01:41:41.747Z,19.60
2019-06-07T01:44:11.788Z,19.97
2019-06-07T01:46:41.725Z,19.57
2019-06-07T01:49:11.755Z,20.70
2019-06-07T01:51:41.666Z,20.63
2019-06-07T01:54:49.423Z,19.07
2019-06-07T01:56:44.369Z,20.40
2019-06-07T01:59:14.383Z,20.27
2019-06-07T02:01:44.262Z,19.60
2019-06-07T02:04:14.314Z,20.55
2019-06-07T02:06:44.254Z,19.27
2019-06-07T02:09:14.218Z,20.37
2019-06-07T02:11:44.051Z,20.17
2019-06-07T02:14:14.014Z,20.77
2019-06-07T02:16:44.150Z,20.15
2019-06-07T02:19:14.225Z,20.30
2019-06-07T02:21:44.563Z,20.60
2019-06-07T02:24:14.632Z,19.83
2019-06-07T02:26:44.699Z,20.60
2019-06-07T02:29:14.649Z,20.67
2019-06-07T02:31:44.894Z,20.77
2019-06-07T02:34:14.893Z,21.20
2019-06-07T02:36:45.567Z,20.33
2019-06-07T02:39:16.024Z,20.70
2019-06-07T02:41:46.185Z,19.17
2019-06-07T02:44:16.189Z,19.80
2019-06-07T02:46:49.630Z,20.10
2019-06-07T02:49:18.087Z,20.47
2019-06-07T02:51:48.084Z,20.00
2019-06-07T02:54:18.158Z,18.17
2019-06-07T02:56:57.835Z,20.70
2019-06-07T02:59:42.191Z,20.63
2019-06-07T03:01:52.550Z,21.10
2019-06-07T03:04:23.031Z,21.03
2019-06-07T03:06:54.575Z,19.53
2019-06-07T03:09:28.833Z,21.37
2019-06-07T03:12:00.580Z,21.47
2019-06-07T03:14:35.485Z,20.10
2019-06-07T03:17:13.449Z,20.83
2019-06-07T03:19:46.425Z,21.63
2019-06-07T03:22:16.317Z,21.00
2019-06-07T03:24:46.660Z,21.40
2019-06-07T03:27:35.094Z,22.43
2019-06-07T03:29:48.436Z,21.27
2019-06-07T03:32:18.346Z,21.37
2019-06-07T03:34:48.284Z,21.57
2019-06-07T03:37:18.427Z,21.37
2019-06-07T03:39:48.246Z,20.77
2019-06-07T03:42:18.076Z,21.40
2019-06-07T03:44:48.023Z,20.00
2019-06-07T03:47:18.599Z,21.50
2019-06-07T03:49:48.489Z,21.10
2019-06-07T03:52:18.465Z,22.50
2019-06-07T03:54:48.351Z,22.33
2019-06-07T03:57:18.170Z,21.10
2019-06-07T03:59:48.146Z,19.13
2019-06-07T04:02:18.133Z,20.10
2019-06-07T04:04:48.093Z,19.73
2019-06-07T04:07:18.075Z,21.57
2019-06-07T04:09:48.219Z,21.00
2019-06-07T04:12:18.416Z,19.77
2019-06-07T04:14:48.548Z,20.57
2019-06-07T04:17:18.653Z,20.10
2019-06-07T04:19:48.953Z,20.67
2019-06-07T04:22:19.074Z,20.57
2019-06-07T04:24:49.044Z,19.60
2019-06-07T04:27:19.132Z,19.93
2019-06-07T04:30:06.689Z,19.83
2019-06-07T04:32:20.890Z,21.87
2019-06-07T04:34:50.868Z,18.97
2019-06-07T04:37:21.409Z,18.70
2019-06-07T04:39:51.862Z,18.77
2019-06-07T04:42:22.253Z,18.67
2019-06-07T04:44:53.182Z,19.90
2019-06-07T04:47:26.750Z,19.23
2019-06-07T04:49:58.167Z,20.57
2019-06-07T04:52:29.945Z,18.80
2019-06-07T04:55:00.009Z,18.50
2019-06-07T04:57:32.031Z,19.23
2019-06-07T05:00:12.760Z,17.83
2019-06-07T05:02:36.777Z,19.20
2019-06-07T05:05:05.294Z,19.27
2019-06-07T05:07:37.155Z,18.40
2019-06-07T05:10:06.850Z,18.30
2019-06-07T05:12:43.062Z,17.50
2019-06-07T05:15:08.497Z,17.30
2019-06-07T05:17:42.526Z,17.77
2019-06-07T05:20:10.291Z,17.73
2019-06-07T05:22:44.912Z,16.63
2019-06-07T05:25:12.005Z,19.03
2019-06-07T05:27:46.653Z,17.03
2019-06-07T05:30:57.894Z,17.07
2019-06-07T05:32:46.255Z,16.93
2019-06-07T05:35:16.565Z,16.70
2019-06-07T05:37:46.582Z,16.30
2019-06-07T05:40:21.403Z,15.80
2019-06-07T05:42:52.734Z,16.10
2019-06-07T05:45:32.331Z,17.10
2019-06-07T05:48:03.062Z,15.50
2019-06-07T05:50:42.382Z,15.10
2019-06-07T05:53:05.487Z,15.27
2019-06-07T05:55:37.666Z,16.90
2019-06-07T05:58:07.199Z,14.38
2019-06-07T06:00:38.888Z,14.78
2019-06-07T06:03:08.853Z,13.55
2019-06-07T06:05:44.986Z,14.15
2019-06-07T06:08:10.655Z,13.17
2019-06-07T06:10:46.124Z,13.38
2019-06-07T06:13:12.316Z,13.68
2019-06-07T06:15:56.326Z,13.85
2019-06-07T06:18:13.827Z,14.23
2019-06-07T06:21:05.353Z,12.60
2019-06-07T06:23:15.467Z,13.32
2019-06-07T06:25:53.544Z,13.72
2019-06-07T06:28:18.364Z,13.35
2019-06-07T06:30:49.948Z,13.10
2019-06-07T06:33:32.964Z,11.90
2019-06-07T06:35:51.858Z,12.37
2019-06-07T06:38:21.734Z,13.47
2019-06-07T06:41:05.264Z,14.07
2019-06-07T06:43:23.433Z,12.68
2019-06-07T06:45:53.429Z,13.17
2019-06-07T06:48:23.571Z,13.45
2019-06-07T06:50:53.540Z,12.75
2019-06-07T06:53:23.485Z,13.47
2019-06-07T06:55:54.520Z,12.50
2019-06-07T06:58:24.505Z,13.40
2019-06-07T07:01:05.745Z,13.10
2019-06-07T07:06:24.269Z,12.37
2019-06-07T07:08:30.106Z,13.15
2019-06-07T07:11:00.022Z,12.53
2019-06-07T07:13:29.962Z,12.95
2019-06-07T07:15:59.941Z,13.03
2019-06-07T07:18:29.911Z,12.50
2019-06-07T07:21:00.095Z,12.23
2019-06-07T07:23:29.958Z,12.40
2019-06-07T07:26:00.316Z,11.47
2019-06-07T07:28:30.536Z,13.58
2019-06-07T07:31:00.480Z,12.18
2019-06-07T07:34:21.127Z,12.30
2019-06-07T07:36:19.076Z,11.93
2019-06-07T07:38:34.097Z,11.20
2019-06-07T07:41:14.648Z,11.00
2019-06-07T07:43:35.581Z,11.28
2019-06-07T07:46:28.060Z,12.40
2019-06-07T07:48:38.311Z,10.55
2019-06-07T07:51:08.252Z,10.57
2019-06-07T07:53:51.890Z,10.23
2019-06-07T07:56:10.110Z,10.25
2019-06-07T07:58:40.142Z,11.60
2019-06-07T08:01:11.329Z,11.43
2019-06-07T08:03:41.543Z,10.40
2019-06-07T08:06:11.623Z,10.85
2019-06-07T08:08:41.448Z,10.38
2019-06-07T08:11:11.419Z,10.33
2019-06-07T08:13:43.115Z,10.23
2019-06-07T08:16:16.742Z,10.70
2019-06-07T08:18:44.862Z,11.55
2019-06-07T08:21:24.557Z,11.40
2019-06-07T08:23:47.667Z,10.18
2019-06-07T08:26:17.997Z,10.45
2019-06-07T08:28:48.428Z,10.32
2019-06-07T08:31:20.392Z,10.63
2019-06-07T08:33:50.409Z,9.70
2019-06-07T08:36:31.494Z,10.23
2019-06-07T08:38:56.977Z,10.45
2019-06-07T08:41:23.616Z,9.05
2019-06-07T08:43:56.451Z,9.43
2019-06-07T08:46:25.340Z,10.05
2019-06-07T08:48:57.173Z,9.47
2019-06-07T08:51:27.048Z,9.85
2019-06-07T08:54:15.908Z,8.73
2019-06-07T08:56:28.836Z,10.15
2019-06-07T08:59:03.042Z,9.30
2019-06-07T09:01:30.549Z,10.33
2019-06-07T09:04:07.607Z,9.43
2019-06-07T09:09:07.044Z,8.83
2019-06-07T09:11:37.348Z,9.50
2019-06-07T09:14:09.158Z,9.10
2019-06-07T09:16:39.933Z,8.83
2019-06-07T09:19:10.856Z,8.50
2019-06-07T09:21:41.231Z,9.55
2019-06-07T09:24:12.165Z,9.73
2019-06-07T09:26:42.258Z,8.57
2019-06-07T09:29:12.455Z,8.58
2019-06-07T09:31:52.798Z,7.92
2019-06-07T09:34:15.546Z,10.60
2019-06-07T09:36:45.729Z,8.08
2019-06-07T09:39:15.729Z,7.27
2019-06-07T09:41:49.914Z,7.62
2019-06-07T09:44:25.113Z,8.03
2019-06-07T09:47:07.982Z,7.83
2019-06-07T09:49:31.425Z,7.90
2019-06-07T09:51:52.526Z,7.60
2019-06-07T09:55:03.819Z,8.53
2019-06-07T09:56:54.061Z,7.40
2019-06-07T09:59:25.217Z,7.25
2019-06-07T10:01:55.418Z,6.58
2019-06-07T10:04:31.325Z,7.80
2019-06-07T10:07:03.982Z,7.47
2019-06-07T10:12:00.579Z,8.08
2019-06-07T10:14:30.604Z,7.28
2019-06-07T10:17:00.888Z,7.73
2019-06-07T10:19:30.912Z,7.17
2019-06-07T10:22:01.442Z,7.33
2019-06-07T10:24:31.450Z,6.62
2019-06-07T10:27:01.793Z,5.85
2019-06-07T10:29:31.806Z,6.00
2019-06-07T10:32:02.265Z,5.70
2019-06-07T10:34:32.406Z,6.17
2019-06-07T10:37:03.323Z,5.80
2019-06-07T10:39:47.745Z,5.37
2019-06-07T10:42:06.385Z,5.57
2019-06-07T10:44:37.622Z,5.83
2019-06-07T10:47:08.174Z,4.62
2019-06-07T10:49:38.416Z,4.70
2019-06-07T10:52:10.391Z,5.40
2019-06-07T10:54:40.949Z,4.87
2019-06-07T10:57:14.575Z,4.60
2019-06-07T10:59:42.485Z,4.62
2019-06-07T11:02:13.951Z,5.40
2019-06-07T11:04:44.058Z,4.33
2019-06-07T11:07:14.454Z,4.87
2019-06-07T11:09:44.481Z,5.30
2019-06-07T11:12:15.323Z,5.00
2019-06-07T11:14:45.648Z,4.70
2019-06-07T11:17:15.949Z,4.92
2019-06-07T11:19:45.989Z,4.58
2019-06-07T11:22:15.934Z,5.00
2019-06-07T11:24:46.274Z,3.77
2019-06-07T11:27:16.568Z,4.30
2019-06-07T11:29:47.814Z,4.05
2019-06-07T11:32:18.868Z,4.50
2019-06-07T11:34:48.854Z,4.95
2019-06-07T11:37:19.147Z,4.72
2019-06-07T11:39:49.106Z,4.53
2019-06-07T11:42:20.067Z,4.20
2019-06-07T11:44:56.817Z,4.47
2019-06-07T11:47:21.937Z,4.40
2019-06-07T11:49:52.168Z,5.22
2019-06-07T11:52:22.174Z,4.00
2019-06-07T11:54:52.125Z,3.77
2019-06-07T11:57:22.142Z,4.47
2019-06-07T11:59:51.957Z,3.55
2019-06-07T12:02:21.905Z,4.10
2019-06-07T12:04:52.133Z,4.58
2019-06-07T12:07:22.686Z,4.72
2019-06-07T12:09:56.531Z,4.25
2019-06-07T12:12:24.573Z,4.53
2019-06-07T12:14:54.466Z,4.42
2019-06-07T12:17:24.509Z,4.80
2019-06-07T12:19:54.802Z,4.62
2019-06-07T12:22:24.776Z,3.98
2019-06-07T12:24:55.068Z,4.00
2019-06-07T12:27:25.259Z,3.83
2019-06-07T12:29:55.148Z,4.00
2019-06-07T12:32:25.010Z,3.52
2019-06-07T12:34:55.238Z,3.17
2019-06-07T12:37:39.643Z,3.98
2019-06-07T12:39:56.966Z,4.17
2019-06-07T12:42:27.304Z,4.00
2019-06-07T12:44:57.253Z,4.10
2019-06-07T12:47:27.293Z,4.63
2019-06-07T12:49:57.307Z,4.92
2019-06-07T12:52:27.128Z,3.90
2019-06-07T12:54:57.142Z,4.20
2019-06-07T12:57:27.604Z,4.00
2019-06-07T12:59:57.558Z,3.92
2019-06-07T13:02:27.560Z,4.22
2019-06-07T13:04:57.418Z,3.80
2019-06-07T13:07:27.981Z,4.10
2019-06-07T13:09:58.246Z,4.20
2019-06-07T13:12:28.315Z,4.12
2019-06-07T13:14:58.354Z,4.17
2019-06-07T13:17:28.613Z,4.20
2019-06-07T13:19:59.038Z,4.43
2019-06-07T13:22:29.034Z,3.83
2019-06-07T13:24:59.668Z,3.92
2019-06-07T13:27:33.328Z,4.00
2019-06-07T13:30:09.860Z,3.72
2019-06-07T13:32:34.735Z,4.00
2019-06-07T13:35:05.047Z,4.17
2019-06-07T13:37:35.007Z,4.25
2019-06-07T13:40:05.388Z,4.47
2019-06-07T13:42:35.356Z,4.22
2019-06-07T13:45:06.851Z,4.40
2019-06-07T13:47:36.868Z,4.28
2019-06-07T13:50:07.674Z,4.35
2019-06-07T13:52:37.885Z,4.30
2019-06-07T13:55:08.759Z,4.75
2019-06-07T13:57:38.698Z,4.42
2019-06-07T14:00:11.105Z,4.65
2019-06-07T14:02:41.425Z,4.50
2019-06-07T14:05:11.753Z,4.20
2019-06-07T14:07:41.958Z,4.47
2019-06-07T14:10:12.394Z,4.70
2019-06-07T14:12:42.419Z,4.15
2019-06-07T14:15:13.878Z,4.12
2019-06-07T14:17:44.096Z,4.20
2019-06-07T14:20:14.398Z,4.28
2019-06-07T14:22:45.144Z,4.58
2019-06-07T14:25:15.080Z,4.67
2019-06-07T14:27:44.879Z,4.10
2019-06-07T14:30:15.066Z,4.17
2019-06-07T14:32:45.368Z,4.70
2019-06-07T14:35:16.897Z,4.15
2019-06-07T14:37:46.938Z,3.77
2019-06-07T14:40:17.375Z,4.10
2019-06-07T14:42:47.616Z,4.20
2019-06-07T14:45:18.192Z,4.00
2019-06-07T14:47:48.197Z,4.40
2019-06-07T14:50:18.578Z,4.13
2019-06-07T14:52:49.066Z,4.17
2019-06-07T14:55:19.281Z,3.92
2019-06-07T14:57:49.356Z,3.98
2019-06-07T15:00:19.352Z,3.90
2019-06-07T15:02:49.634Z,3.87
2019-06-07T15:05:23.303Z,4.25
2019-06-07T15:07:53.293Z,4.17
2019-06-07T15:10:23.407Z,4.97
2019-06-07T15:12:53.346Z,4.75
2019-06-07T15:15:23.479Z,3.87
2019-06-07T15:17:53.366Z,4.03
2019-06-07T15:20:23.655Z,4.42
2019-06-07T15:22:53.513Z,3.83
2019-06-07T15:25:23.540Z,4.50
2019-06-07T15:27:53.574Z,4.15
2019-06-07T15:30:23.632Z,4.40
2019-06-07T15:32:53.561Z,3.98
2019-06-07T15:35:23.713Z,4.45
2019-06-07T15:37:53.523Z,4.40
2019-06-07T15:40:23.570Z,4.40
2019-06-07T15:42:53.547Z,4.50
2019-06-07T15:45:23.573Z,4.50
2019-06-07T15:47:53.505Z,4.90
2019-06-07T15:50:23.716Z,4.23
2019-06-07T15:52:53.933Z,4.37
2019-06-07T15:55:24.650Z,4.74
2019-06-07T15:57:55.048Z,4.70
2019-06-07T16:00:25.282Z,4.80
2019-06-07T16:02:55.252Z,4.90
2019-06-07T16:05:25.331Z,5.10
2019-06-07T16:07:55.305Z,5.00
2019-06-07T16:10:25.413Z,5.65
2019-06-07T16:13:00.553Z,5.37
2019-06-07T16:15:27.580Z,5.05
2019-06-07T16:17:57.565Z,4.85
2019-06-07T16:20:27.506Z,5.10
2019-06-07T16:22:57.394Z,4.83
2019-06-07T16:25:27.447Z,5.58
2019-06-07T16:27:57.463Z,5.10
2019-06-07T16:30:27.773Z,5.63
2019-06-07T16:32:57.738Z,5.95
2019-06-07T16:35:28.019Z,5.28
2019-06-07T16:37:57.982Z,5.40
2019-06-07T16:40:27.930Z,5.95
2019-06-07T16:43:13.355Z,5.13
2019-06-07T16:45:29.840Z,5.10
2019-06-07T16:48:00.117Z,5.20
2019-06-07T16:50:30.329Z,5.15
2019-06-07T16:53:00.344Z,5.30
2019-06-07T16:55:30.371Z,5.77
2019-06-07T16:58:00.340Z,4.97
2019-06-07T17:00:30.290Z,5.97
2019-06-07T17:03:00.208Z,5.00
2019-06-07T17:05:30.247Z,5.40
2019-06-07T17:08:01.282Z,5.40
2019-06-07T17:10:31.296Z,5.55
2019-06-07T17:13:01.585Z,5.83
2019-06-07T17:15:31.553Z,5.47
2019-06-07T17:18:01.499Z,5.35
2019-06-07T17:20:32.430Z,5.72
2019-06-07T17:23:02.430Z,5.85
2019-06-07T17:25:32.686Z,6.10
2019-06-07T17:28:02.657Z,5.60
2019-06-07T17:30:32.676Z,5.90
2019-06-07T17:33:02.622Z,5.55
2019-06-07T17:35:32.675Z,5.57
2019-06-07T17:38:02.635Z,6.03
2019-06-07T17:40:32.579Z,6.50
2019-06-07T17:43:02.625Z,5.93
2019-06-07T17:45:32.445Z,6.35
2019-06-07T17:48:02.729Z,6.83
2019-06-07T17:50:32.642Z,6.12
2019-06-07T17:53:02.964Z,7.17
2019-06-07T17:55:33.049Z,7.00
2019-06-07T17:58:03.261Z,6.42
2019-06-07T18:00:51.007Z,6.70
2019-06-07T18:03:21.632Z,6.85
2019-06-07T18:05:53.604Z,6.58
2019-06-07T18:08:24.902Z,6.62
2019-06-07T18:10:54.848Z,7.25
2019-06-07T18:13:24.810Z,8.25
2019-06-07T18:15:59.264Z,8.40
2019-06-07T18:18:27.464Z,8.25
2019-06-07T18:20:57.674Z,8.65
2019-06-07T18:23:27.630Z,9.00
2019-06-07T18:25:58.553Z,7.43
2019-06-07T18:28:28.782Z,5.45
2019-06-07T18:30:59.011Z,3.77
2019-06-07T18:33:29.091Z,4.63
2019-06-07T18:35:59.501Z,5.50
2019-06-07T18:38:29.443Z,6.95
2019-06-07T18:40:59.630Z,5.35
2019-06-07T18:43:30.587Z,6.25
2019-06-07T18:46:00.487Z,3.10
2019-06-07T18:48:30.447Z,5.45
2019-06-07T18:51:00.363Z,5.75
2019-06-07T18:53:30.288Z,4.92
2019-06-07T18:56:00.257Z,5.58
2019-06-07T18:58:30.257Z,4.47
2019-06-07T19:01:00.246Z,4.85
2019-06-07T19:03:31.256Z,3.65
2019-06-07T19:06:01.140Z,4.20
2019-06-07T19:08:31.352Z,2.42
2019-06-07T19:11:01.516Z,2.20
2019-06-07T19:13:31.497Z,2.20
2019-06-07T19:16:01.495Z,2.07
2019-06-07T19:18:31.515Z,2.27
2019-06-07T19:21:01.516Z,2.40
2019-06-07T19:23:31.322Z,2.43
2019-06-07T19:26:01.202Z,2.50
2019-06-07T19:28:31.148Z,2.72
2019-06-07T19:31:01.376Z,1.92
2019-06-07T19:33:31.344Z,2.13
2019-06-07T19:36:01.806Z,2.12
2019-06-07T19:38:31.873Z,2.25
2019-06-07T19:41:16.475Z,2.22
2019-06-07T19:43:33.345Z,2.30
2019-06-07T19:46:03.310Z,2.12
2019-06-07T19:48:33.262Z,2.05
2019-06-07T19:51:03.266Z,2.40
2019-06-07T19:53:33.192Z,2.50
2019-06-07T19:56:03.550Z,2.67
2019-06-07T19:58:33.549Z,2.47
2019-06-07T20:01:04.737Z,2.60
2019-06-07T20:03:35.875Z,2.05
2019-06-07T20:06:06.127Z,2.50
2019-06-07T20:08:36.102Z,2.35
2019-06-07T20:11:06.152Z,1.98
2019-06-07T20:13:36.130Z,1.65
2019-06-07T20:16:06.108Z,1.77
2019-06-07T20:18:37.079Z,1.93
2019-06-07T20:21:07.301Z,2.17
2019-06-07T20:23:37.439Z,2.02
2019-06-07T20:26:07.342Z,2.03
2019-06-07T20:28:38.785Z,1.70
2019-06-07T20:31:09.285Z,2.62
2019-06-07T20:33:39.297Z,1.92
2019-06-07T20:36:09.249Z,1.80
2019-06-07T20:38:39.196Z,2.10
2019-06-07T20:41:09.138Z,2.33
2019-06-07T20:43:39.284Z,2.12
2019-06-07T20:46:09.251Z,1.60
2019-06-07T20:48:39.441Z,1.72
2019-06-07T20:51:09.388Z,2.10
2019-06-07T20:53:39.592Z,1.90
2019-06-07T20:56:09.711Z,2.15
2019-06-07T20:58:41.216Z,1.93
2019-06-07T21:01:11.084Z,1.98
2019-06-07T21:03:41.046Z,2.33
2019-06-07T21:06:11.126Z,2.15
2019-06-07T21:08:41.149Z,2.05
2019-06-07T21:11:11.014Z,2.17
2019-06-07T21:13:40.961Z,2.30
2019-06-07T21:16:10.980Z,2.30
2019-06-07T21:18:40.930Z,1.73
2019-06-07T21:21:10.908Z,1.70
2019-06-07T21:23:41.175Z,2.00
2019-06-07T21:26:11.308Z,1.67
2019-06-07T21:28:41.233Z,1.85
2019-06-07T21:31:12.386Z,1.40
2019-06-07T21:33:42.398Z,2.03
2019-06-07T21:36:12.338Z,1.52
2019-06-07T21:38:42.316Z,1.70
2019-06-07T21:41:12.892Z,1.92
2019-06-07T21:43:43.157Z,1.60
2019-06-07T21:46:20.004Z,1.72
2019-06-07T21:48:45.153Z,2.10
2019-06-07T21:51:15.379Z,1.75
2019-06-07T21:53:45.386Z,1.80
2019-06-07T21:56:15.446Z,1.90
2019-06-07T21:58:46.424Z,2.10
2019-06-07T22:01:28.701Z,2.22
2019-06-07T22:03:58.836Z,2.33
2019-06-07T22:06:28.783Z,2.00
2019-06-07T22:08:58.826Z,2.10
2019-06-07T22:11:28.812Z,1.85
2019-06-07T22:13:59.430Z,2.05
2019-06-07T22:16:29.737Z,1.98
2019-06-07T22:18:59.607Z,1.87
2019-06-07T22:21:29.577Z,1.87
2019-06-07T22:23:59.919Z,1.98
2019-06-07T22:26:29.829Z,1.85
2019-06-07T22:28:59.865Z,1.43
2019-06-07T22:31:31.070Z,1.72
2019-06-07T22:34:01.492Z,1.35
2019-06-07T22:36:31.467Z,1.10
2019-06-07T22:39:01.536Z,1.83
2019-06-07T22:41:33.040Z,1.35
2019-06-07T22:44:03.086Z,1.20
2019-06-07T22:46:37.342Z,0.82
2019-06-07T22:49:04.912Z,1.10
2019-06-07T22:51:34.863Z,0.90
2019-06-07T22:54:04.941Z,0.90
2019-06-07T22:56:43.213Z,1.30
2019-06-07T22:59:16.761Z,0.80
2019-06-07T23:01:44.907Z,1.10
2019-06-07T23:04:14.853Z,1.05
2019-06-07T23:06:44.675Z,0.80
2019-06-07T23:09:14.950Z,0.78
2019-06-07T23:11:44.886Z,1.10
2019-06-07T23:14:15.938Z,0.90
2019-06-07T23:16:55.039Z,1.57
2019-06-07T23:19:18.297Z,0.90
2019-06-07T23:21:48.377Z,0.93
2019-06-07T23:24:20.139Z,0.88
2019-06-07T23:26:50.058Z,0.90
2019-06-07T23:29:20.728Z,0.72
2019-06-07T23:31:50.696Z,1.00
2019-06-07T23:34:21.039Z,1.62
2019-06-07T23:36:50.916Z,0.80
2019-06-07T23:39:22.369Z,0.90
2019-06-07T23:41:52.610Z,0.80
2019-06-07T23:44:22.525Z,1.00
2019-06-07T23:46:52.709Z,1.10
2019-06-07T23:49:22.930Z,0.90
2019-06-07T23:51:53.084Z,0.85
2019-06-07T23:54:23.047Z,0.90
2019-06-07T23:56:53.118Z,0.90
2019-06-07T23:59:23.432Z,0.70
